»·PEaware :: SWA935 KCOS-KDEN

SWA935 :: KCOS-KDEN

FLIGHT INFORMATION

Flight Status: Arrived
Operator:
Southwest Airlines
More flights by this operator :: More flights under this callsign
Pilot: Michael S. (20314)
Aircraft: AIRBUS A321
(A321)
More flights by this aircraft type
Origin: KCOS City Of Colorado Springs Mun
United States
Destination: KDEN Denver Intl
United States
More flights between these airports :: More routes between these airports
Route: ADANE V389 LUFSE JEFEL
File this flight plan on PilotEdge
Remarks: RMK / SIMBRIEF
Altitude:
(Current/Filed)
12,000ft
Speed:
(Current/Filed)
374kts
Departed: 03-May-22 04:06 PM
Arrived: 03-May-22 04:27 PM
Distance/Time
Traveled:
63nm/0:21
Distance/Time
To Go:
Arrived

Flight Plot

Page will automatically refresh every two minutes.

Flight plan parsing failed; only flown route is shown


Map Options




Map Legend


Flown Route
Filed Route
Departure Airport
Arrival Airport
Navaid (VOR, NDB)
Fix

Horizontal Profiles

Position Reports

Time Latitude Longitude Heading Altitude Ground
Speed
03-May-22 15:17 38.800023 -104.700754 180 6196ft 0kts
03-May-22 15:18 38.800023 -104.700754 180 6196ft 0kts
03-May-22 15:19 38.800023 -104.700754 180 6196ft 0kts
03-May-22 15:20 38.800023 -104.700754 180 6196ft 0kts
03-May-22 15:20 38.800023 -104.700754 180 6196ft 0kts
03-May-22 15:22 38.800023 -104.700754 180 6196ft 0kts
03-May-22 15:23 38.800023 -104.700754 180 6196ft 0kts
03-May-22 15:24 38.800023 -104.700754 180 6196ft 0kts
03-May-22 15:25 38.800023 -104.700754 180 6196ft 0kts
03-May-22 15:25 38.800023 -104.700754 180 6196ft 0kts
03-May-22 15:26 38.800023 -104.700754 180 6196ft 0kts
03-May-22 15:27 38.800023 -104.700754 180 6196ft 0kts
03-May-22 15:29 38.800023 -104.700754 180 6196ft 0kts
03-May-22 15:29 38.800023 -104.700754 180 6196ft 0kts
03-May-22 15:30 38.800023 -104.700754 180 6196ft 0kts
03-May-22 15:31 38.800023 -104.700754 180 6196ft 0kts
03-May-22 15:32 38.800023 -104.700754 180 6196ft 0kts
03-May-22 15:33 38.800023 -104.700754 180 6196ft 0kts
03-May-22 15:34 38.800023 -104.700754 180 6196ft 0kts
03-May-22 15:35 38.800023 -104.700754 180 6196ft 0kts
03-May-22 15:36 38.800023 -104.700754 180 6196ft 0kts
03-May-22 15:37 38.800023 -104.700754 180 6196ft 0kts
03-May-22 15:38 38.800023 -104.700754 180 6196ft 0kts
03-May-22 15:39 38.800023 -104.700754 180 6196ft 0kts
03-May-22 15:40 38.800023 -104.700754 180 6196ft 0kts
03-May-22 15:41 38.800023 -104.700754 180 6196ft 0kts
03-May-22 15:42 38.800023 -104.700754 180 6196ft 0kts
03-May-22 15:43 38.800023 -104.700754 180 6196ft 0kts
03-May-22 15:44 38.800023 -104.700754 180 6196ft 0kts
03-May-22 15:45 38.800023 -104.700754 180 6196ft 0kts
03-May-22 15:46 38.800023 -104.700754 180 6196ft 0kts
03-May-22 15:47 38.800023 -104.700754 180 6196ft 0kts
03-May-22 15:48 38.800023 -104.700754 180 6196ft 0kts
03-May-22 15:49 38.800023 -104.700754 180 6196ft 0kts
03-May-22 15:50 38.800023 -104.700754 180 6196ft 0kts
03-May-22 15:51 38.800023 -104.700754 180 6196ft 0kts
03-May-22 15:52 38.800023 -104.700754 180 6196ft 0kts
03-May-22 15:53 38.800023 -104.700754 180 6196ft 0kts
03-May-22 15:54 38.800023 -104.700754 180 6196ft 0kts
03-May-22 15:55 38.800024 -104.700754 180 6196ft 0kts
03-May-22 15:56 38.800146 -104.701134 93 6196ft 2kts
03-May-22 15:57 38.800148 -104.701456 90 6196ft 0kts
03-May-22 15:58 38.800148 -104.701456 90 6196ft 0kts
03-May-22 15:59 38.801375 -104.700951 359 6196ft 11kts
03-May-22 16:00 38.803128 -104.697876 89 6196ft 24kts
03-May-22 16:01 38.803125 -104.688905 90 6196ft 13kts
03-May-22 16:02 38.808025 -104.687662 359 6196ft 27kts
03-May-22 16:03 38.814602 -104.687632 0 6196ft 21kts
03-May-22 16:04 38.815919 -104.687119 80 6196ft 0kts
03-May-22 16:05 38.807037 -104.685728 180 6196ft 125kts
03-May-22 16:06 38.755706 -104.686079 180 7873ft 198kts
03-May-22 16:07 38.695837 -104.686424 181 8988ft 242kts
03-May-22 16:08 38.629586 -104.654972 117 10384ft 302kts
03-May-22 16:09 38.663312 -104.560591 23 11752ft 352kts
03-May-22 16:10 38.751355 -104.506457 24 12014ft 351kts
03-May-22 16:11 38.838363 -104.450039 24 12023ft 351kts
03-May-22 16:12 38.927080 -104.400044 7 12022ft 347kts
03-May-22 16:13 39.022623 -104.394018 359 12025ft 344kts
03-May-22 16:14 39.118089 -104.389443 359 12035ft 342kts
03-May-22 16:15 39.207219 -104.382008 12 12033ft 346kts
03-May-22 16:16 39.286471 -104.415431 310 11233ft 309kts
03-May-22 16:17 39.347512 -104.484819 320 11079ft 289kts
03-May-22 16:18 39.411700 -104.547045 322 11051ft 289kts
03-May-22 16:19 39.476389 -104.608545 322 11022ft 289kts
03-May-22 16:20 39.540409 -104.661472 345 10915ft 256kts
03-May-22 16:21 39.610738 -104.663356 358 9654ft 261kts
03-May-22 16:22 39.683606 -104.662393 359 8266ft 263kts
03-May-22 16:23 39.752017 -104.661518 359 6959ft 221kts
03-May-22 16:24 39.804048 -104.660855 0 5922ft 153kts
03-May-22 16:25 39.843344 -104.660355 0 5443ft 97kts
03-May-22 16:26 39.856607 -104.660705 303 5443ft 19kts
03-May-22 16:27 39.856737 -104.662254 271 5443ft 13kts

Navigation Log

Ident Type
Flight plan parsing failed, navigation log unavailable